Startpagina
METAR-TAF:

METAR-TAF

Vliegvelden :

Vliegbasis Woensdrecht

Woensdrecht, Nederland

breedte: 51-27N, lengte: 004-20E, hoogte: 20 m

Actueel weer

Dit bericht is 27 minuten geleden gemaakt, om 11:25 UTC
Wind 4 kt uit het oosten, variërend tussen het oostnoordoosten en het oostzuidoosten
Temperatuur 6°C
Vochtigheid 70%
Druk 1017 hPa
Zicht 10 km of meer
geen wolken onder 1500 m en geen cumulonimbus

METAR: EHWO 201125Z AUTO 14003KT 060V120 9999 NCD 06/01 Q1017 BLU 09004KT CAVOK

Tijdstip: 12:52 (11:52 UTC)

Verwachting

Dit bericht is 2 uur en het 17 minuten geleden gemaakt, om 09:35 UTC
Verwachting geldig van 20 om 10 UTC tot 20 om 22 UTC
Wind 5 kt uit het oosten
Zicht 10 km of meer
geen wolken onder 1500 m en geen cumulonimbus
Kans 30% :
Tijdelijke
van 20 om 17 UTC tot 20 om 22 UTC
Gebroken wolken op 1000 ft

TAF: EHWO 200935Z 2010/2022 09005KT CAVOK PROB30 TEMPO 2017/2022 BKN010

Waarnemingen en weersverwachtingen van meer dan 4000 vliegvelden (METAR en TAF).

De beschikbare stations zijn de gele en rode punten op de kaart.

Ga met uw muis naar het station om de naam te zien.

Klik dan om waarnemingen en weersverwachtingen te zien.

kaart wijzigen: klik op de groene knoppen met een zwart kruis om in te zoomen, op de groene knop met een streepje om uit te zoomen of op de groene pijlen voor aangrenzende kaarten.


METAR-TAF: